Christos Xiii — SVA2355 — position and weather

sailwx.info

Track history (hours):
 
Tides and Currents Weather Stations Pressure Air Temp Water Temp Dewpoint Dewpoint Depression Visibility Wind Speed Wind Dir Waves Ship Positions

Christos Xiii

Last reported at 2017-Sep-22 01:00 UTC. Time now 2017-Sep-22 01:15 UTC.
Position N 38°02' E 023°31'.

Length 27 m; draft 3.7 m.

Type: Tug. MMSI: 240919000.

Date/timePositionNaut miles runAvg speedWind from/ knotsBaromVisibWave heightAir tempDewpointWater temp
2017-Sep-22 01:00N 38°02' E 023°31'0 0.0
2017-Sep-22 00:30N 38°02' E 023°31'0 0.0
2017-Sep-22 00:00N 38°02' E 023°31'0 0.0
2017-Sep-21 23:30N 38°02' E 023°31'0 0.0
2017-Sep-21 23:01N 38°02' E 023°31'0 0.0
2017-Sep-21 22:31N 38°02' E 023°31'0 0.6
2017-Sep-21 22:00N 38°02' E 023°31'0 0.6
2017-Sep-21 21:30N 38°02' E 023°31'0 0.0
2017-Sep-21 21:00N 38°02' E 023°31'0 0.0
2017-Sep-21 20:30N 38°02' E 023°31'0 0.0
2017-Sep-21 20:01N 38°02' E 023°31'0 0.0
2017-Sep-21 19:31N 38°02' E 023°31'0 0.0
2017-Sep-21 19:00N 38°02' E 023°31'0 0.0
2017-Sep-21 18:30N 38°02' E 023°31'0 0.0
2017-Sep-21 18:00N 38°02' E 023°31'0 0.5
2017-Sep-21 17:30N 38°02' E 023°30'0 0.5
2017-Sep-21 17:00N 38°02' E 023°31'0 0.0
2017-Sep-21 16:30N 38°02' E 023°31'0 0.1
2017-Sep-21 16:00N 38°02' E 023°31'0 0.2
2017-Sep-21 15:30N 38°02' E 023°31'2 3.2
2017-Sep-21 15:00N 38°01' E 023°32'2 3.2
2017-Sep-21 14:31N 38°02' E 023°30'0 0.3
2017-Sep-21 14:00N 38°02' E 023°31'1 2.2
2017-Sep-21 13:30N 38°01' E 023°32'1 2.3
2017-Sep-21 13:00N 38°02' E 023°30'0 0.8
2017-Sep-21 12:30N 38°02' E 023°30'0 0.0
2017-Sep-21 12:00N 38°02' E 023°30'0 0.0
2017-Sep-21 11:30N 38°02' E 023°30'0 0.0
2017-Sep-21 11:00N 38°02' E 023°30'0 0.0
2017-Sep-21 10:30N 38°02' E 023°30'0 0.0
2017-Sep-21 10:01N 38°02' E 023°30'0 0.0
2017-Sep-21 09:30N 38°02' E 023°30'0 0.4
2017-Sep-21 09:00N 38°02' E 023°31'0 0.0
2017-Sep-21 08:30N 38°02' E 023°31'0 0.0
2017-Sep-21 08:00N 38°02' E 023°31'0 0.2
2017-Sep-21 07:30N 38°02' E 023°30'0 0.2
2017-Sep-21 07:00N 38°02' E 023°31'0 0.0
2017-Sep-21 06:31N 38°02' E 023°31'0 0.0
2017-Sep-21 06:00N 38°02' E 023°31'0 0.0
2017-Sep-21 05:30N 38°02' E 023°31'0 0.0
2017-Sep-21 05:00N 38°02' E 023°31'0 0.0
2017-Sep-21 04:30N 38°02' E 023°31'0 0.0
2017-Sep-21 04:00N 38°02' E 023°31'0 0.0
2017-Sep-21 03:30N 38°02' E 023°31'0 0.0
2017-Sep-21 03:00N 38°02' E 023°31'0 0.0
2017-Sep-21 02:30N 38°02' E 023°31'0 0.0
2017-Sep-21 02:00N 38°02' E 023°31'0 0.0
2017-Sep-21 01:30N 38°02' E 023°31'0 0.0
2017-Sep-21 01:01N 38°02' E 023°31'0 0.0
2017-Sep-21 00:31N 38°02' E 023°31'0 0.6
2017-Sep-21 00:00N 38°02' E 023°30'0 0.6
2017-Sep-20 23:31N 38°02' E 023°31'0 0.0
2017-Sep-20 23:01N 38°02' E 023°31'0 0.0
2017-Sep-20 22:31N 38°02' E 023°31'0 0.0
2017-Sep-20 22:00N 38°02' E 023°31'0 0.0
2017-Sep-20 21:30N 38°02' E 023°31'0 0.0
2017-Sep-20 21:00N 38°02' E 023°31'0 0.0
2017-Sep-20 20:31N 38°02' E 023°31'0 0.0
2017-Sep-20 20:00N 38°02' E 023°31'0 0.0
2017-Sep-20 19:31N 38°02' E 023°31'0 0.0
2017-Sep-20 19:00N 38°02' E 023°31'0 0.0
2017-Sep-20 18:30N 38°02' E 023°31'0 0.0
2017-Sep-20 18:00N 38°02' E 023°31'0 0.0
2017-Sep-20 17:31N 38°02' E 023°31'0 0.0
2017-Sep-20 17:01N 38°02' E 023°31'0 0.0
2017-Sep-20 16:30N 38°02' E 023°31'0 0.0
2017-Sep-20 16:00N 38°02' E 023°31'0 0.0
2017-Sep-20 15:30N 38°02' E 023°31'0 0.0
2017-Sep-20 15:01N 38°02' E 023°31'0 0.0
2017-Sep-20 14:00N 38°02' E 023°31'0 0.0
2017-Sep-20 13:31N 38°02' E 023°31'0 0.0
2017-Sep-20 13:01N 38°02' E 023°31'0 0.6
2017-Sep-20 12:30N 38°02' E 023°30'0 0.6
2017-Sep-20 12:00N 38°02' E 023°31'0 0.0
2017-Sep-20 11:30N 38°02' E 023°31'4 7.2
2017-Sep-20 11:00N 37°59' E 023°33'2 3.8
2017-Sep-20 10:31N 37°57' E 023°33'1 1.5
2017-Sep-20 10:00N 37°58' E 023°34'0 0.0
2017-Sep-20 09:30N 37°58' E 023°34'1 1.9
2017-Sep-20 09:00N 37°58' E 023°33'4 7.8
2017-Sep-20 08:30N 38°02' E 023°36'1 1.4
2017-Sep-20 08:00N 38°01' E 023°35'3 5.0
2017-Sep-20 07:30N 38°02' E 023°32'1 2.0
2017-Sep-20 07:01N 38°02' E 023°31'1 2.4
2017-Sep-20 06:31N 38°01' E 023°32'4 8.4
2017-Sep-20 06:00N 37°57' E 023°34'0 1.0
2017-Sep-20 05:30N 37°57' E 023°35'1 2.2
2017-Sep-20 05:00N 37°58' E 023°33'3 5.4
2017-Sep-20 04:31N 37°57' E 023°37'1 2.4
2017-Sep-20 04:00N 37°56' E 023°38'1 2.6
2017-Sep-20 03:30N 37°56' E 023°37'1 2.5
2017-Sep-20 03:00N 37°56' E 023°35'2 4.5
2017-Sep-20 02:30N 37°58' E 023°33'0 0.0
2017-Sep-20 02:00N 37°58' E 023°33'0 0.0
2017-Sep-20 01:30N 37°58' E 023°33'0 0.0
2017-Sep-20 01:00N 37°58' E 023°33'0 0.0
2017-Sep-20 00:30N 37°58' E 023°33'0 0.0
2017-Sep-20 00:00N 37°58' E 023°33'0 0.0
2017-Sep-19 23:30N 37°58' E 023°33'0 0.0
2017-Sep-19 23:00N 37°58' E 023°33'0 0.0
2017-Sep-19 22:30N 37°58' E 023°33'0 0.0
2017-Sep-19 22:00N 37°58' E 023°33'0 0.0
2017-Sep-19 21:30N 37°58' E 023°33'0 0.0
2017-Sep-19 21:01N 37°58' E 023°33'0 0.0
2017-Sep-19 20:30N 37°58' E 023°33'0 0.0
2017-Sep-19 20:00N 37°58' E 023°33'2 3.1
2017-Sep-19 19:30N 37°57' E 023°35'1 2.9
2017-Sep-19 19:00N 37°58' E 023°33'0 0.0
2017-Sep-19 18:30N 37°58' E 023°33'1 2.0
2017-Sep-19 18:00N 37°57' E 023°34'5 9.4
2017-Sep-19 17:30N 37°52' E 023°34'2 4.3
2017-Sep-19 17:00N 37°55' E 023°35'3 5.7
2017-Sep-19 16:30N 37°57' E 023°34'0 0.9
2017-Sep-19 16:00N 37°57' E 023°33'4 8.1
2017-Sep-19 15:30N 38°01' E 023°34'1 1.0
2017-Sep-19 15:00N 38°02' E 023°34'0 0.0
2017-Sep-19 14:30N 38°02' E 023°34'0 0.0
2017-Sep-19 14:00N 38°02' E 023°34'0 0.0
2017-Sep-19 13:30N 38°02' E 023°34'0 0.0
2017-Sep-19 13:00N 38°02' E 023°34'0 0.0
2017-Sep-19 12:30N 38°02' E 023°34'4 6.1
2017-Sep-19 11:47N 37°57' E 023°34'0 1.2
2017-Sep-19 11:30N 37°58' E 023°34'0 0.0
2017-Sep-19 11:00N 37°58' E 023°34'0 0.0
2017-Sep-19 10:30N 37°58' E 023°34'1 1.1
2017-Sep-19 10:00N 37°57' E 023°34'0 0.7
2017-Sep-19 09:30N 37°57' E 023°34'0 0.5
2017-Sep-19 09:00N 37°57' E 023°34'0 0.1
2017-Sep-19 08:30N 37°57' E 023°34'0 0.8
2017-Sep-19 08:01N 37°57' E 023°33'0 0.1
2017-Sep-19 07:30N 37°57' E 023°33'1 1.3
2017-Sep-19 07:00N 37°58' E 023°34'0 0.0
2017-Sep-19 06:31N 37°58' E 023°34'1 1.4
2017-Sep-19 06:00N 37°57' E 023°35'0 0.1
2017-Sep-19 05:30N 37°57' E 023°35'3 6.5
2017-Sep-19 05:00N 38°01' E 023°34'1 2.9
2017-Sep-19 04:30N 38°01' E 023°36'0 0.0
2017-Sep-19 04:00N 38°01' E 023°36'0 0.0
2017-Sep-19 03:30N 38°01' E 023°36'0 0.0
2017-Sep-19 03:00N 38°01' E 023°36'0 0.0
2017-Sep-19 02:30N 38°01' E 023°36'0 0.0
2017-Sep-19 02:00N 38°01' E 023°36'0 0.0
2017-Sep-19 01:30N 38°01' E 023°36'0 0.0
2017-Sep-19 01:00N 38°01' E 023°36'0 0.0
2017-Sep-19 00:30N 38°01' E 023°36'0 0.0
2017-Sep-19 00:00N 38°01' E 023°36'0 0.0
2017-Sep-18 23:30N 38°01' E 023°36'0 0.0
2017-Sep-18 23:00N 38°01' E 023°36'0 0.0
2017-Sep-18 22:30N 38°01' E 023°36'0 0.0
2017-Sep-18 22:00N 38°01' E 023°36'0 0.0
2017-Sep-18 21:30N 38°01' E 023°36'0 0.0
2017-Sep-18 21:00N 38°01' E 023°35'0 0.0
2017-Sep-18 20:30N 38°01' E 023°36'0 0.0
2017-Sep-18 20:00N 38°01' E 023°35'0 0.0
2017-Sep-18 19:30N 38°01' E 023°36'0 0.0
2017-Sep-18 19:01N 38°01' E 023°36'0 0.0
2017-Sep-18 18:30N 38°01' E 023°36'0 0.0
2017-Sep-18 18:00N 38°01' E 023°36'0 0.0
2017-Sep-18 17:30N 38°01' E 023°36'0 0.0
2017-Sep-18 17:00N 38°01' E 023°36'0 0.0
2017-Sep-18 16:28N 38°01' E 023°36'0 0.0
2017-Sep-18 15:52N 38°01' E 023°36'0 0.0
2017-Sep-18 15:30N 38°01' E 023°36'1 1.3
2017-Sep-18 15:01N 38°01' E 023°35'1 1.2
2017-Sep-18 14:28N 38°01' E 023°36'0 0.0
2017-Sep-18 13:56N 38°01' E 023°36'0 0.0
2017-Sep-18 13:14N 38°01' E 023°35'0 0.0
2017-Sep-18 12:55N 38°01' E 023°35'0 0.0
2017-Sep-18 12:30N 38°01' E 023°36'0 0.0
2017-Sep-18 10:59N 38°01' E 023°36'0 0.0
2017-Sep-18 10:27N 38°01' E 023°36'0 0.0
2017-Sep-18 10:00N 38°01' E 023°36'0 0.0
2017-Sep-18 09:31N 38°01' E 023°36'0 0.0
2017-Sep-18 09:00N 38°01' E 023°36'0 0.0
2017-Sep-18 08:30N 38°01' E 023°36'0 0.0
2017-Sep-18 08:00N 38°01' E 023°36'0 0.3
2017-Sep-18 07:31N 38°02' E 023°36'2 4.2
2017-Sep-18 07:00N 38°02' E 023°33'2 3.6
2017-Sep-18 06:31N 38°02' E 023°31'0 0.0
2017-Sep-18 06:00N 38°02' E 023°31'0 0.5
2017-Sep-18 05:31N 38°02' E 023°31'0 0.0
2017-Sep-18 05:00N 38°02' E 023°31'0 0.0
2017-Sep-18 04:30N 38°02' E 023°31'0 0.0
2017-Sep-18 04:00N 38°02' E 023°31'0 0.0
2017-Sep-17 15:40N 38°02' E 023°31'0 0.0
2017-Sep-17 15:30N 38°02' E 023°31'0 0.0
2017-Sep-17 15:00N 38°02' E 023°31'0 0.9
2017-Sep-17 14:30N 38°02' E 023°31'4 7.6
2017-Sep-17 14:00N 38°02' E 023°36'0 0.3
2017-Sep-17 13:30N 38°01' E 023°36'0 0.0
2017-Sep-17 13:00N 38°01' E 023°36'0 0.0
2017-Sep-17 12:30N 38°01' E 023°36'0 0.0
2017-Sep-17 12:00N 38°01' E 023°36'0 0.0
2017-Sep-17 11:30N 38°01' E 023°36'0 0.0
2017-Sep-17 11:00N 38°01' E 023°36'0 0.1
2017-Sep-17 10:30N 38°01' E 023°35'0 0.1
2017-Sep-17 10:00N 38°01' E 023°36'0 0.0
2017-Sep-17 09:30N 38°01' E 023°36'0 0.0
2017-Sep-17 09:00N 38°01' E 023°36'0 0.2
2017-Sep-17 08:30N 38°02' E 023°36'0 0.2
2017-Sep-17 08:00N 38°01' E 023°35'0 0.0
2017-Sep-17 07:30N 38°01' E 023°36'0 0.0
2017-Sep-17 07:00N 38°01' E 023°36'0 0.0
2017-Sep-17 06:30N 38°01' E 023°36'0 0.0
2017-Sep-17 06:00N 38°01' E 023°36'0 0.0
2017-Sep-17 05:30N 38°01' E 023°36'0 0.0
2017-Sep-17 05:00N 38°01' E 023°36'0 0.0
2017-Sep-17 04:30N 38°01' E 023°36'0 0.0
2017-Sep-17 04:00N 38°01' E 023°36'0 0.0
2017-Sep-17 03:30N 38°01' E 023°36'0 0.0
2017-Sep-17 03:00N 38°01' E 023°36'0 0.0
2017-Sep-17 02:28N 38°01' E 023°36'0 0.0
2017-Sep-17 02:00N 38°01' E 023°36'0 0.0
2017-Sep-17 01:30N 38°01' E 023°36'0 0.0
2017-Sep-17 01:00N 38°01' E 023°36'0 0.0
2017-Sep-17 00:30N 38°01' E 023°36'0 0.0
2017-Sep-17 00:00N 38°01' E 023°36'0 0.0
2017-Sep-16 23:30N 38°01' E 023°36'0 0.0
2017-Sep-16 23:00N 38°01' E 023°36'0 0.0
2017-Sep-16 22:30N 38°01' E 023°36'0 0.0
2017-Sep-16 22:00N 38°01' E 023°36'0 0.0
2017-Sep-16 21:30N 38°01' E 023°36'0 0.0
2017-Sep-16 21:00N 38°01' E 023°36'0 0.0
2017-Sep-16 20:30N 38°01' E 023°36'0 0.0
2017-Sep-16 20:00N 38°01' E 023°36'0 0.0
2017-Sep-16 19:30N 38°01' E 023°36'0 0.0
2017-Sep-16 18:56N 38°01' E 023°36'0 0.0
2017-Sep-16 18:25N 38°01' E 023°36'0 0.0
2017-Sep-16 18:00N 38°01' E 023°36'0 0.0
2017-Sep-16 17:30N 38°01' E 023°36'0 0.5
2017-Sep-16 17:00N 38°02' E 023°36'1 1.2
2017-Sep-16 16:30N 38°01' E 023°35'0 0.8
2017-Sep-16 16:00N 38°01' E 023°36'0 0.0
2017-Sep-16 15:30N 38°01' E 023°36'0 0.0
2017-Sep-16 15:00N 38°01' E 023°36'0 0.0
2017-Sep-16 14:29N 38°01' E 023°36'0 0.0
2017-Sep-16 11:14N 38°01' E 023°36'0 0.0
2017-Sep-16 11:00N 38°01' E 023°36'0 0.1
2017-Sep-16 10:30N 38°02' E 023°36'1 2.5
2017-Sep-16 10:00N 38°01' E 023°34'3 6.4
2017-Sep-16 09:30N 38°02' E 023°30'0 0.2
2017-Sep-16 09:00N 38°02' E 023°31'0 0.0
2017-Sep-16 08:30N 38°02' E 023°31'0 0.0
2017-Sep-16 08:00N 38°02' E 023°31'0 0.0
2017-Sep-16 07:30N 38°02' E 023°31'0 0.0
2017-Sep-16 07:00N 38°02' E 023°31'0 0.0
2017-Sep-16 06:30N 38°02' E 023°31'0 0.0
2017-Sep-16 06:00N 38°02' E 023°31'0 0.0
2017-Sep-16 05:30N 38°02' E 023°31'0 0.0
2017-Sep-16 05:00N 38°02' E 023°31'0 0.0
2017-Sep-16 04:30N 38°02' E 023°31'0 0.0
2017-Sep-16 04:00N 38°02' E 023°31'0 0.0
2017-Sep-16 03:30N 38°02' E 023°31'0 0.0
2017-Sep-16 03:00N 38°02' E 023°31'0 0.0
2017-Sep-16 02:30N 38°02' E 023°31'0 0.0
2017-Sep-16 02:00N 38°02' E 023°31'0 0.0
2017-Sep-16 01:30N 38°02' E 023°31'0 0.0
2017-Sep-16 01:00N 38°02' E 023°31'0 0.0
2017-Sep-16 00:30N 38°02' E 023°31'0 0.0
2017-Sep-16 00:00N 38°02' E 023°31'0 0.4
2017-Sep-15 23:30N 38°02' E 023°31'0 0.4
2017-Sep-15 23:00N 38°02' E 023°31'0 0.0
2017-Sep-15 22:30N 38°02' E 023°31'0 0.0
2017-Sep-15 22:00N 38°02' E 023°31'0 0.0
2017-Sep-15 21:30N 38°02' E 023°31'0 0.0
2017-Sep-15 21:00N 38°02' E 023°31'0 0.0
2017-Sep-15 20:30N 38°02' E 023°31'0 0.0
2017-Sep-15 20:00N 38°02' E 023°31'0 0.3
2017-Sep-15 19:30N 38°02' E 023°31'0 0.3
2017-Sep-15 19:00N 38°02' E 023°31'0 0.5
2017-Sep-15 18:30N 38°02' E 023°31'0 0.5
2017-Sep-15 18:00N 38°02' E 023°31'0 0.0
2017-Sep-15 17:30N 38°02' E 023°31'0 0.8
2017-Sep-15 17:00N 38°02' E 023°30'1 1.2
2017-Sep-15 16:30N 38°02' E 023°31'1 0.2
2017-Sep-15 14:05N 38°02' E 023°31'0 0.1
2017-Sep-15 14:00N 38°02' E 023°31'0 0.3
2017-Sep-15 13:31N 38°02' E 023°31'0 0.2
2017-Sep-15 13:00N 38°02' E 023°31'0 0.2
2017-Sep-15 12:30N 38°02' E 023°31'0 0.0
2017-Sep-15 12:00N 38°02' E 023°31'0 0.0
2017-Sep-15 11:31N 38°02' E 023°31'0 0.0
2017-Sep-15 11:00N 38°02' E 023°31'0 0.0
2017-Sep-15 10:30N 38°02' E 023°31'0 0.0
2017-Sep-15 10:00N 38°02' E 023°31'0 0.0
2017-Sep-15 09:30N 38°02' E 023°31'0 0.0
2017-Sep-15 09:00N 38°02' E 023°31'0 0.0
2017-Sep-15 08:30N 38°02' E 023°31'0 0.0
2017-Sep-15 08:00N 38°02' E 023°31'0 0.3
2017-Sep-15 07:30N 38°02' E 023°31'0 0.3
2017-Sep-15 07:01N 38°02' E 023°31'0 0.0
2017-Sep-15 06:31N 38°02' E 023°31'0 0.0
2017-Sep-15 06:01N 38°02' E 023°31'0 0.0
2017-Sep-15 05:31N 38°02' E 023°31'0 0.0
2017-Sep-15 05:00N 38°02' E 023°31'0 0.0
2017-Sep-15 04:30N 38°02' E 023°31'0 0.0
2017-Sep-15 04:01N 38°02' E 023°31'0 0.0
2017-Sep-14 17:40N 38°02' E 023°31'0 1.2
2017-Sep-14 17:31N 38°02' E 023°31'4 8.9
2017-Sep-14 17:00N 37°58' E 023°33'2 4.2
2017-Sep-14 16:30N 37°56' E 023°34'0 0.2
2017-Sep-14 16:01N 37°56' E 023°34'0 0.2
2017-Sep-14 15:31N 37°56' E 023°34'1 2.2
2017-Sep-14 15:00N 37°56' E 023°33'0 0.4
2017-Sep-14 14:30N 37°56' E 023°33'0 0.2
2017-Sep-14 14:00N 37°56' E 023°33'0 0.4
2017-Sep-14 13:31N 37°56' E 023°33'0 0.4
2017-Sep-14 13:01N 37°56' E 023°33'0 0.3
2017-Sep-14 12:30N 37°56' E 023°33'0 0.2
2017-Sep-14 12:00N 37°56' E 023°33'0 0.1
2017-Sep-14 11:30N 37°56' E 023°33'0 0.2
2017-Sep-14 11:00N 37°56' E 023°33'0 0.3
2017-Sep-14 10:30N 37°56' E 023°33'0 0.2
2017-Sep-14 10:00N 37°56' E 023°33'2 3.3
2017-Sep-14 09:31N 37°57' E 023°35'1 2.4
2017-Sep-14 09:00N 37°58' E 023°34'0 0.2
2017-Sep-14 08:31N 37°58' E 023°34'0 0.2
2017-Sep-14 08:00N 37°58' E 023°34'1 1.3
2017-Sep-14 07:31N 37°57' E 023°33'1 1.4
2017-Sep-14 07:00N 37°58' E 023°34'3 6.4
2017-Sep-14 06:31N 37°56' E 023°37'0 0.0
2017-Sep-14 06:00N 37°56' E 023°37'0 1.0
2017-Sep-14 05:31N 37°56' E 023°37'0 0.8
2017-Sep-14 05:00N 37°56' E 023°37'0 0.0
2017-Sep-14 04:28N 37°56' E 023°37'1 2.5
2017-Sep-14 04:01N 37°57' E 023°36'4 7.6
2017-Sep-14 03:31N 37°59' E 023°33'3 6.6
2017-Sep-14 03:01N 38°02' E 023°31'0 0.0
2017-Sep-14 02:30N 38°02' E 023°31'0 0.0
2017-Sep-14 02:01N 38°02' E 023°31'0 0.0
2017-Sep-14 01:31N 38°02' E 023°31'0 0.0
2017-Sep-14 01:00N 38°02' E 023°31'0 0.0
2017-Sep-14 00:31N 38°02' E 023°31'0 0.0
2017-Sep-14 00:00N 38°02' E 023°31'0 0.0
2017-Sep-13 23:30N 38°02' E 023°31'0 0.0
2017-Sep-13 23:00N 38°02' E 023°31'0 0.0
2017-Sep-13 22:30N 38°02' E 023°31'0 0.0
2017-Sep-13 22:00N 38°02' E 023°31'0 0.0
2017-Sep-13 21:31N 38°02' E 023°31'0 0.8
2017-Sep-13 21:01N 38°02' E 023°31'3 6.5
2017-Sep-13 20:31N 38°01' E 023°35'1 1.2
2017-Sep-13 20:00N 38°01' E 023°36'0 0.3
2017-Sep-13 19:31N 38°01' E 023°36'0 0.0
2017-Sep-13 19:01N 38°01' E 023°36'0 0.0
2017-Sep-13 18:31N 38°01' E 023°36'0 0.0
2017-Sep-13 17:58N 38°01' E 023°36'0 0.0
2017-Sep-13 17:31N 38°01' E 023°36'0 0.0
2017-Sep-13 17:01N 38°01' E 023°36'0 0.0
2017-Sep-13 16:30N 38°01' E 023°36'0 0.0
2017-Sep-13 16:01N 38°01' E 023°36'0 0.0
2017-Sep-13 15:31N 38°01' E 023°36'0 0.0
2017-Sep-13 15:00N 38°01' E 023°36'0 0.0
2017-Sep-13 14:31N 38°01' E 023°36'0 0.0
2017-Sep-13 14:00N 38°01' E 023°36'0 0.0
2017-Sep-13 13:30N 38°01' E 023°36'0 0.0
2017-Sep-13 13:00N 38°01' E 023°36'0 0.0
2017-Sep-13 12:30N 38°01' E 023°36'0 0.0
2017-Sep-13 11:59N 38°01' E 023°36'0 0.0
2017-Sep-13 11:31N 38°01' E 023°36'0 0.0
2017-Sep-13 09:52N 38°01' E 023°36'0 0.0
2017-Sep-13 09:25N 38°01' E 023°36'0 0.0
2017-Sep-13 08:38N 38°01' E 023°36'0 0.0
2017-Sep-13 07:52N 38°01' E 023°36'0 0.0
2017-Sep-13 07:30N 38°01' E 023°36'1 1.3
2017-Sep-13 07:00N 38°01' E 023°35'3 6.7
2017-Sep-13 06:30N 38°02' E 023°30'0 0.3
2017-Sep-13 06:00N 38°02' E 023°31'0 0.0
2017-Sep-13 05:30N 38°02' E 023°31'0 0.0
2017-Sep-13 05:01N 38°02' E 023°31'0 0.0
2017-Sep-13 04:30N 38°02' E 023°31'0 0.0
2017-Sep-13 04:01N 38°02' E 023°31'4 0.3
2017-Sep-12 12:45N 38°01' E 023°35'0 0.0
2017-Sep-12 12:30N 38°01' E 023°36'0 0.0
2017-Sep-12 12:00N 38°01' E 023°36'0 0.0
2017-Sep-12 11:30N 38°01' E 023°35'0 0.0
2017-Sep-12 11:00N 38°01' E 023°36'0 0.0
2017-Sep-12 10:31N 38°01' E 023°36'0 0.0
2017-Sep-12 10:00N 38°01' E 023°36'0 0.0
2017-Sep-12 09:30N 38°01' E 023°36'0 0.0
2017-Sep-12 09:00N 38°01' E 023°36'0 0.0
2017-Sep-12 08:31N 38°01' E 023°36'0 0.0
2017-Sep-12 08:00N 38°01' E 023°35'0 0.0
2017-Sep-12 07:30N 38°01' E 023°36'0 0.5
2017-Sep-12 07:00N 38°02' E 023°36'1 2.4
2017-Sep-12 06:30N 38°02' E 023°34'2 5.0
2017-Sep-12 06:00N 38°02' E 023°31'1 1.1
2017-Sep-12 05:30N 38°02' E 023°31'0 0.0
2017-Sep-12 05:00N 38°02' E 023°31'0 0.0
2017-Sep-12 04:30N 38°02' E 023°31'0 0.0
2017-Sep-12 04:00N 38°02' E 023°31'0 0.0
2017-Sep-12 03:30N 38°02' E 023°31'0 0.0
2017-Sep-12 03:00N 38°02' E 023°31'0 0.0
2017-Sep-12 02:30N 38°02' E 023°31'0 0.0
2017-Sep-12 02:00N 38°02' E 023°31'0 0.0
2017-Sep-12 01:30N 38°02' E 023°31'0 0.0
2017-Sep-12 01:00N 38°02' E 023°31'  
Track history (hours):
 
Tides and Currents Weather Stations Pressure Air Temp Water Temp Dewpoint Dewpoint Depression Visibility Wind Speed Wind Dir Waves Ship Positions

Christos Xiii

Last reported at 2017-Sep-22 01:00 UTC. Time now 2017-Sep-22 01:15 UTC.
Position N 38°02' E 023°31'.

Length 27 m; draft 3.7 m.

Type: Tug. MMSI: 240919000.

Date/timePositionNaut miles runAvg speedWind from/ knotsBaromVisibWave heightAir tempDewpointWater temp
2017-Sep-22 01:00N 38°02' E 023°31'0 0.0
2017-Sep-22 00:30N 38°02' E 023°31'0 0.0
2017-Sep-22 00:00N 38°02' E 023°31'0 0.0
2017-Sep-21 23:30N 38°02' E 023°31'0 0.0
2017-Sep-21 23:01N 38°02' E 023°31'0 0.0
2017-Sep-21 22:31N 38°02' E 023°31'0 0.6
2017-Sep-21 22:00N 38°02' E 023°31'0 0.6
2017-Sep-21 21:30N 38°02' E 023°31'0 0.0
2017-Sep-21 21:00N 38°02' E 023°31'0 0.0
2017-Sep-21 20:30N 38°02' E 023°31'0 0.0
2017-Sep-21 20:01N 38°02' E 023°31'0 0.0
2017-Sep-21 19:31N 38°02' E 023°31'0 0.0
2017-Sep-21 19:00N 38°02' E 023°31'0 0.0
2017-Sep-21 18:30N 38°02' E 023°31'0 0.0
2017-Sep-21 18:00N 38°02' E 023°31'0 0.5
2017-Sep-21 17:30N 38°02' E 023°30'0 0.5
2017-Sep-21 17:00N 38°02' E 023°31'0 0.0
2017-Sep-21 16:30N 38°02' E 023°31'0 0.1
2017-Sep-21 16:00N 38°02' E 023°31'0 0.2
2017-Sep-21 15:30N 38°02' E 023°31'2 3.2
2017-Sep-21 15:00N 38°01' E 023°32'2 3.2
2017-Sep-21 14:31N 38°02' E 023°30'0 0.3
2017-Sep-21 14:00N 38°02' E 023°31'1 2.2
2017-Sep-21 13:30N 38°01' E 023°32'1 2.3
2017-Sep-21 13:00N 38°02' E 023°30'0 0.8
2017-Sep-21 12:30N 38°02' E 023°30'0 0.0
2017-Sep-21 12:00N 38°02' E 023°30'0 0.0
2017-Sep-21 11:30N 38°02' E 023°30'0 0.0
2017-Sep-21 11:00N 38°02' E 023°30'0 0.0
2017-Sep-21 10:30N 38°02' E 023°30'0 0.0
2017-Sep-21 10:01N 38°02' E 023°30'0 0.0
2017-Sep-21 09:30N 38°02' E 023°30'0 0.4
2017-Sep-21 09:00N 38°02' E 023°31'0 0.0
2017-Sep-21 08:30N 38°02' E 023°31'0 0.0
2017-Sep-21 08:00N 38°02' E 023°31'0 0.2
2017-Sep-21 07:30N 38°02' E 023°30'0 0.2
2017-Sep-21 07:00N 38°02' E 023°31'0 0.0
2017-Sep-21 06:31N 38°02' E 023°31'0 0.0
2017-Sep-21 06:00N 38°02' E 023°31'0 0.0
2017-Sep-21 05:30N 38°02' E 023°31'0 0.0
2017-Sep-21 05:00N 38°02' E 023°31'0 0.0
2017-Sep-21 04:30N 38°02' E 023°31'0 0.0
2017-Sep-21 04:00N 38°02' E 023°31'0 0.0
2017-Sep-21 03:30N 38°02' E 023°31'0 0.0
2017-Sep-21 03:00N 38°02' E 023°31'0 0.0
2017-Sep-21 02:30N 38°02' E 023°31'0 0.0
2017-Sep-21 02:00N 38°02' E 023°31'0 0.0
2017-Sep-21 01:30N 38°02' E 023°31'0 0.0
2017-Sep-21 01:01N 38°02' E 023°31'0 0.0
2017-Sep-21 00:31N 38°02' E 023°31'0 0.6
2017-Sep-21 00:00N 38°02' E 023°30'0 0.6
2017-Sep-20 23:31N 38°02' E 023°31'0 0.0
2017-Sep-20 23:01N 38°02' E 023°31'0 0.0
2017-Sep-20 22:31N 38°02' E 023°31'0 0.0
2017-Sep-20 22:00N 38°02' E 023°31'0 0.0
2017-Sep-20 21:30N 38°02' E 023°31'0 0.0
2017-Sep-20 21:00N 38°02' E 023°31'0 0.0
2017-Sep-20 20:31N 38°02' E 023°31'0 0.0
2017-Sep-20 20:00N 38°02' E 023°31'0 0.0
2017-Sep-20 19:31N 38°02' E 023°31'0 0.0
2017-Sep-20 19:00N 38°02' E 023°31'0 0.0
2017-Sep-20 18:30N 38°02' E 023°31'0 0.0
2017-Sep-20 18:00N 38°02' E 023°31'0 0.0
2017-Sep-20 17:31N 38°02' E 023°31'0 0.0
2017-Sep-20 17:01N 38°02' E 023°31'0 0.0
2017-Sep-20 16:30N 38°02' E 023°31'0 0.0
2017-Sep-20 16:00N 38°02' E 023°31'0 0.0
2017-Sep-20 15:30N 38°02' E 023°31'0 0.0
2017-Sep-20 15:01N 38°02' E 023°31'0 0.0
2017-Sep-20 14:00N 38°02' E 023°31'0 0.0
2017-Sep-20 13:31N 38°02' E 023°31'0 0.0
2017-Sep-20 13:01N 38°02' E 023°31'0 0.6
2017-Sep-20 12:30N 38°02' E 023°30'0 0.6
2017-Sep-20 12:00N 38°02' E 023°31'0 0.0
2017-Sep-20 11:30N 38°02' E 023°31'4 7.2
2017-Sep-20 11:00N 37°59' E 023°33'2 3.8
2017-Sep-20 10:31N 37°57' E 023°33'1 1.5
2017-Sep-20 10:00N 37°58' E 023°34'0 0.0
2017-Sep-20 09:30N 37°58' E 023°34'1 1.9
2017-Sep-20 09:00N 37°58' E 023°33'4 7.8
2017-Sep-20 08:30N 38°02' E 023°36'1 1.4
2017-Sep-20 08:00N 38°01' E 023°35'3 5.0
2017-Sep-20 07:30N 38°02' E 023°32'1 2.0
2017-Sep-20 07:01N 38°02' E 023°31'1 2.4
2017-Sep-20 06:31N 38°01' E 023°32'4 8.4
2017-Sep-20 06:00N 37°57' E 023°34'0 1.0
2017-Sep-20 05:30N 37°57' E 023°35'1 2.2
2017-Sep-20 05:00N 37°58' E 023°33'3 5.4
2017-Sep-20 04:31N 37°57' E 023°37'1 2.4
2017-Sep-20 04:00N 37°56' E 023°38'1 2.6
2017-Sep-20 03:30N 37°56' E 023°37'1 2.5
2017-Sep-20 03:00N 37°56' E 023°35'2 4.5
2017-Sep-20 02:30N 37°58' E 023°33'0 0.0
2017-Sep-20 02:00N 37°58' E 023°33'0 0.0
2017-Sep-20 01:30N 37°58' E 023°33'0 0.0
2017-Sep-20 01:00N 37°58' E 023°33'0 0.0
2017-Sep-20 00:30N 37°58' E 023°33'0 0.0
2017-Sep-20 00:00N 37°58' E 023°33'0 0.0
2017-Sep-19 23:30N 37°58' E 023°33'0 0.0
2017-Sep-19 23:00N 37°58' E 023°33'0 0.0
2017-Sep-19 22:30N 37°58' E 023°33'0 0.0
2017-Sep-19 22:00N 37°58' E 023°33'0 0.0
2017-Sep-19 21:30N 37°58' E 023°33'0 0.0
2017-Sep-19 21:01N 37°58' E 023°33'0 0.0
2017-Sep-19 20:30N 37°58' E 023°33'0 0.0
2017-Sep-19 20:00N 37°58' E 023°33'2 3.1
2017-Sep-19 19:30N 37°57' E 023°35'1 2.9
2017-Sep-19 19:00N 37°58' E 023°33'0 0.0
2017-Sep-19 18:30N 37°58' E 023°33'1 2.0
2017-Sep-19 18:00N 37°57' E 023°34'5 9.4
2017-Sep-19 17:30N 37°52' E 023°34'2 4.3
2017-Sep-19 17:00N 37°55' E 023°35'3 5.7
2017-Sep-19 16:30N 37°57' E 023°34'0 0.9
2017-Sep-19 16:00N 37°57' E 023°33'4 8.1
2017-Sep-19 15:30N 38°01' E 023°34'1 1.0
2017-Sep-19 15:00N 38°02' E 023°34'0 0.0
2017-Sep-19 14:30N 38°02' E 023°34'0 0.0
2017-Sep-19 14:00N 38°02' E 023°34'0 0.0
2017-Sep-19 13:30N 38°02' E 023°34'0 0.0
2017-Sep-19 13:00N 38°02' E 023°34'0 0.0
2017-Sep-19 12:30N 38°02' E 023°34'4 6.1
2017-Sep-19 11:47N 37°57' E 023°34'0 1.2
2017-Sep-19 11:30N 37°58' E 023°34'0 0.0
2017-Sep-19 11:00N 37°58' E 023°34'0 0.0
2017-Sep-19 10:30N 37°58' E 023°34'1 1.1
2017-Sep-19 10:00N 37°57' E 023°34'0 0.7
2017-Sep-19 09:30N 37°57' E 023°34'0 0.5
2017-Sep-19 09:00N 37°57' E 023°34'0 0.1
2017-Sep-19 08:30N 37°57' E 023°34'0 0.8
2017-Sep-19 08:01N 37°57' E 023°33'0 0.1
2017-Sep-19 07:30N 37°57' E 023°33'1 1.3
2017-Sep-19 07:00N 37°58' E 023°34'0 0.0
2017-Sep-19 06:31N 37°58' E 023°34'1 1.4
2017-Sep-19 06:00N 37°57' E 023°35'0 0.1
2017-Sep-19 05:30N 37°57' E 023°35'3 6.5
2017-Sep-19 05:00N 38°01' E 023°34'1 2.9
2017-Sep-19 04:30N 38°01' E 023°36'0 0.0
2017-Sep-19 04:00N 38°01' E 023°36'0 0.0
2017-Sep-19 03:30N 38°01' E 023°36'0 0.0
2017-Sep-19 03:00N 38°01' E 023°36'0 0.0
2017-Sep-19 02:30N 38°01' E 023°36'0 0.0
2017-Sep-19 02:00N 38°01' E 023°36'0 0.0
2017-Sep-19 01:30N 38°01' E 023°36'0 0.0
2017-Sep-19 01:00N 38°01' E 023°36'0 0.0
2017-Sep-19 00:30N 38°01' E 023°36'0 0.0
2017-Sep-19 00:00N 38°01' E 023°36'0 0.0
2017-Sep-18 23:30N 38°01' E 023°36'0 0.0
2017-Sep-18 23:00N 38°01' E 023°36'0 0.0
2017-Sep-18 22:30N 38°01' E 023°36'0 0.0
2017-Sep-18 22:00N 38°01' E 023°36'0 0.0
2017-Sep-18 21:30N 38°01' E 023°36'0 0.0
2017-Sep-18 21:00N 38°01' E 023°35'0 0.0
2017-Sep-18 20:30N 38°01' E 023°36'0 0.0
2017-Sep-18 20:00N 38°01' E 023°35'0 0.0
2017-Sep-18 19:30N 38°01' E 023°36'0 0.0
2017-Sep-18 19:01N 38°01' E 023°36'0 0.0
2017-Sep-18 18:30N 38°01' E 023°36'0 0.0
2017-Sep-18 18:00N 38°01' E 023°36'0 0.0
2017-Sep-18 17:30N 38°01' E 023°36'0 0.0
2017-Sep-18 17:00N 38°01' E 023°36'0 0.0
2017-Sep-18 16:28N 38°01' E 023°36'0 0.0
2017-Sep-18 15:52N 38°01' E 023°36'0 0.0
2017-Sep-18 15:30N 38°01' E 023°36'1 1.3
2017-Sep-18 15:01N 38°01' E 023°35'1 1.2
2017-Sep-18 14:28N 38°01' E 023°36'0 0.0
2017-Sep-18 13:56N 38°01' E 023°36'0 0.0
2017-Sep-18 13:14N 38°01' E 023°35'0 0.0
2017-Sep-18 12:55N 38°01' E 023°35'0 0.0
2017-Sep-18 12:30N 38°01' E 023°36'0 0.0
2017-Sep-18 10:59N 38°01' E 023°36'0 0.0
2017-Sep-18 10:27N 38°01' E 023°36'0 0.0
2017-Sep-18 10:00N 38°01' E 023°36'0 0.0
2017-Sep-18 09:31N 38°01' E 023°36'0 0.0
2017-Sep-18 09:00N 38°01' E 023°36'0 0.0
2017-Sep-18 08:30N 38°01' E 023°36'0 0.0
2017-Sep-18 08:00N 38°01' E 023°36'0 0.3
2017-Sep-18 07:31N 38°02' E 023°36'2 4.2
2017-Sep-18 07:00N 38°02' E 023°33'2 3.6
2017-Sep-18 06:31N 38°02' E 023°31'0 0.0
2017-Sep-18 06:00N 38°02' E 023°31'0 0.5
2017-Sep-18 05:31N 38°02' E 023°31'0 0.0
2017-Sep-18 05:00N 38°02' E 023°31'0 0.0
2017-Sep-18 04:30N 38°02' E 023°31'0 0.0
2017-Sep-18 04:00N 38°02' E 023°31'0 0.0
2017-Sep-17 15:40N 38°02' E 023°31'0 0.0
2017-Sep-17 15:30N 38°02' E 023°31'0 0.0
2017-Sep-17 15:00N 38°02' E 023°31'0 0.9
2017-Sep-17 14:30N 38°02' E 023°31'4 7.6
2017-Sep-17 14:00N 38°02' E 023°36'0 0.3
2017-Sep-17 13:30N 38°01' E 023°36'0 0.0
2017-Sep-17 13:00N 38°01' E 023°36'0 0.0
2017-Sep-17 12:30N 38°01' E 023°36'0 0.0
2017-Sep-17 12:00N 38°01' E 023°36'0 0.0
2017-Sep-17 11:30N 38°01' E 023°36'0 0.0
2017-Sep-17 11:00N 38°01' E 023°36'0 0.1
2017-Sep-17 10:30N 38°01' E 023°35'0 0.1
2017-Sep-17 10:00N 38°01' E 023°36'0 0.0
2017-Sep-17 09:30N 38°01' E 023°36'0 0.0
2017-Sep-17 09:00N 38°01' E 023°36'0 0.2
2017-Sep-17 08:30N 38°02' E 023°36'0 0.2
2017-Sep-17 08:00N 38°01' E 023°35'0 0.0
2017-Sep-17 07:30N 38°01' E 023°36'0 0.0
2017-Sep-17 07:00N 38°01' E 023°36'0 0.0
2017-Sep-17 06:30N 38°01' E 023°36'0 0.0
2017-Sep-17 06:00N 38°01' E 023°36'0 0.0
2017-Sep-17 05:30N 38°01' E 023°36'0 0.0
2017-Sep-17 05:00N 38°01' E 023°36'0 0.0
2017-Sep-17 04:30N 38°01' E 023°36'0 0.0
2017-Sep-17 04:00N 38°01' E 023°36'0 0.0
2017-Sep-17 03:30N 38°01' E 023°36'0 0.0
2017-Sep-17 03:00N 38°01' E 023°36'0 0.0
2017-Sep-17 02:28N 38°01' E 023°36'0 0.0
2017-Sep-17 02:00N 38°01' E 023°36'0 0.0
2017-Sep-17 01:30N 38°01' E 023°36'0 0.0
2017-Sep-17 01:00N 38°01' E 023°36'0 0.0
2017-Sep-17 00:30N 38°01' E 023°36'0 0.0
2017-Sep-17 00:00N 38°01' E 023°36'0 0.0
2017-Sep-16 23:30N 38°01' E 023°36'0 0.0
2017-Sep-16 23:00N 38°01' E 023°36'0 0.0
2017-Sep-16 22:30N 38°01' E 023°36'0 0.0
2017-Sep-16 22:00N 38°01' E 023°36'0 0.0
2017-Sep-16 21:30N 38°01' E 023°36'0 0.0
2017-Sep-16 21:00N 38°01' E 023°36'0 0.0
2017-Sep-16 20:30N 38°01' E 023°36'0 0.0
2017-Sep-16 20:00N 38°01' E 023°36'0 0.0
2017-Sep-16 19:30N 38°01' E 023°36'0 0.0
2017-Sep-16 18:56N 38°01' E 023°36'0 0.0
2017-Sep-16 18:25N 38°01' E 023°36'0 0.0
2017-Sep-16 18:00N 38°01' E 023°36'0 0.0
2017-Sep-16 17:30N 38°01' E 023°36'0 0.5
2017-Sep-16 17:00N 38°02' E 023°36'1 1.2
2017-Sep-16 16:30N 38°01' E 023°35'0 0.8
2017-Sep-16 16:00N 38°01' E 023°36'0 0.0
2017-Sep-16 15:30N 38°01' E 023°36'0 0.0
2017-Sep-16 15:00N 38°01' E 023°36'0 0.0
2017-Sep-16 14:29N 38°01' E 023°36'0 0.0
2017-Sep-16 11:14N 38°01' E 023°36'0 0.0
2017-Sep-16 11:00N 38°01' E 023°36'0 0.1
2017-Sep-16 10:30N 38°02' E 023°36'1 2.5
2017-Sep-16 10:00N 38°01' E 023°34'3 6.4
2017-Sep-16 09:30N 38°02' E 023°30'0 0.2
2017-Sep-16 09:00N 38°02' E 023°31'0 0.0
2017-Sep-16 08:30N 38°02' E 023°31'0 0.0
2017-Sep-16 08:00N 38°02' E 023°31'0 0.0
2017-Sep-16 07:30N 38°02' E 023°31'0 0.0
2017-Sep-16 07:00N 38°02' E 023°31'0 0.0
2017-Sep-16 06:30N 38°02' E 023°31'0 0.0
2017-Sep-16 06:00N 38°02' E 023°31'0 0.0
2017-Sep-16 05:30N 38°02' E 023°31'0 0.0
2017-Sep-16 05:00N 38°02' E 023°31'0 0.0
2017-Sep-16 04:30N 38°02' E 023°31'0 0.0
2017-Sep-16 04:00N 38°02' E 023°31'0 0.0
2017-Sep-16 03:30N 38°02' E 023°31'0 0.0
2017-Sep-16 03:00N 38°02' E 023°31'0 0.0
2017-Sep-16 02:30N 38°02' E 023°31'0 0.0
2017-Sep-16 02:00N 38°02' E 023°31'0 0.0
2017-Sep-16 01:30N 38°02' E 023°31'0 0.0
2017-Sep-16 01:00N 38°02' E 023°31'0 0.0
2017-Sep-16 00:30N 38°02' E 023°31'0 0.0
2017-Sep-16 00:00N 38°02' E 023°31'0 0.4
2017-Sep-15 23:30N 38°02' E 023°31'0 0.4
2017-Sep-15 23:00N 38°02' E 023°31'0 0.0
2017-Sep-15 22:30N 38°02' E 023°31'0 0.0
2017-Sep-15 22:00N 38°02' E 023°31'0 0.0
2017-Sep-15 21:30N 38°02' E 023°31'0 0.0
2017-Sep-15 21:00N 38°02' E 023°31'0 0.0
2017-Sep-15 20:30N 38°02' E 023°31'0 0.0
2017-Sep-15 20:00N 38°02' E 023°31'0 0.3
2017-Sep-15 19:30N 38°02' E 023°31'0 0.3
2017-Sep-15 19:00N 38°02' E 023°31'0 0.5
2017-Sep-15 18:30N 38°02' E 023°31'0 0.5
2017-Sep-15 18:00N 38°02' E 023°31'0 0.0
2017-Sep-15 17:30N 38°02' E 023°31'0 0.8
2017-Sep-15 17:00N 38°02' E 023°30'1 1.2
2017-Sep-15 16:30N 38°02' E 023°31'1 0.2
2017-Sep-15 14:05N 38°02' E 023°31'0 0.1
2017-Sep-15 14:00N 38°02' E 023°31'0 0.3
2017-Sep-15 13:31N 38°02' E 023°31'0 0.2
2017-Sep-15 13:00N 38°02' E 023°31'0 0.2
2017-Sep-15 12:30N 38°02' E 023°31'0 0.0
2017-Sep-15 12:00N 38°02' E 023°31'0 0.0
2017-Sep-15 11:31N 38°02' E 023°31'0 0.0
2017-Sep-15 11:00N 38°02' E 023°31'0 0.0
2017-Sep-15 10:30N 38°02' E 023°31'0 0.0
2017-Sep-15 10:00N 38°02' E 023°31'0 0.0
2017-Sep-15 09:30N 38°02' E 023°31'0 0.0
2017-Sep-15 09:00N 38°02' E 023°31'0 0.0
2017-Sep-15 08:30N 38°02' E 023°31'0 0.0
2017-Sep-15 08:00N 38°02' E 023°31'0 0.3
2017-Sep-15 07:30N 38°02' E 023°31'0 0.3
2017-Sep-15 07:01N 38°02' E 023°31'0 0.0
2017-Sep-15 06:31N 38°02' E 023°31'0 0.0
2017-Sep-15 06:01N 38°02' E 023°31'0 0.0
2017-Sep-15 05:31N 38°02' E 023°31'0 0.0
2017-Sep-15 05:00N 38°02' E 023°31'0 0.0
2017-Sep-15 04:30N 38°02' E 023°31'0 0.0
2017-Sep-15 04:01N 38°02' E 023°31'0 0.0
2017-Sep-14 17:40N 38°02' E 023°31'0 1.2
2017-Sep-14 17:31N 38°02' E 023°31'4 8.9
2017-Sep-14 17:00N 37°58' E 023°33'2 4.2
2017-Sep-14 16:30N 37°56' E 023°34'0 0.2
2017-Sep-14 16:01N 37°56' E 023°34'0 0.2
2017-Sep-14 15:31N 37°56' E 023°34'1 2.2
2017-Sep-14 15:00N 37°56' E 023°33'0 0.4
2017-Sep-14 14:30N 37°56' E 023°33'0 0.2
2017-Sep-14 14:00N 37°56' E 023°33'0 0.4
2017-Sep-14 13:31N 37°56' E 023°33'0 0.4
2017-Sep-14 13:01N 37°56' E 023°33'0 0.3
2017-Sep-14 12:30N 37°56' E 023°33'0 0.2
2017-Sep-14 12:00N 37°56' E 023°33'0 0.1
2017-Sep-14 11:30N 37°56' E 023°33'0 0.2
2017-Sep-14 11:00N 37°56' E 023°33'0 0.3
2017-Sep-14 10:30N 37°56' E 023°33'0 0.2
2017-Sep-14 10:00N 37°56' E 023°33'2 3.3
2017-Sep-14 09:31N 37°57' E 023°35'1 2.4
2017-Sep-14 09:00N 37°58' E 023°34'0 0.2
2017-Sep-14 08:31N 37°58' E 023°34'0 0.2
2017-Sep-14 08:00N 37°58' E 023°34'1 1.3
2017-Sep-14 07:31N 37°57' E 023°33'1 1.4
2017-Sep-14 07:00N 37°58' E 023°34'3 6.4
2017-Sep-14 06:31N 37°56' E 023°37'0 0.0
2017-Sep-14 06:00N 37°56' E 023°37'0 1.0
2017-Sep-14 05:31N 37°56' E 023°37'0 0.8
2017-Sep-14 05:00N 37°56' E 023°37'0 0.0
2017-Sep-14 04:28N 37°56' E 023°37'1 2.5
2017-Sep-14 04:01N 37°57' E 023°36'4 7.6
2017-Sep-14 03:31N 37°59' E 023°33'3 6.6
2017-Sep-14 03:01N 38°02' E 023°31'0 0.0
2017-Sep-14 02:30N 38°02' E 023°31'0 0.0
2017-Sep-14 02:01N 38°02' E 023°31'0 0.0
2017-Sep-14 01:31N 38°02' E 023°31'0 0.0
2017-Sep-14 01:00N 38°02' E 023°31'0 0.0
2017-Sep-14 00:31N 38°02' E 023°31'0 0.0
2017-Sep-14 00:00N 38°02' E 023°31'0 0.0
2017-Sep-13 23:30N 38°02' E 023°31'0 0.0
2017-Sep-13 23:00N 38°02' E 023°31'0 0.0
2017-Sep-13 22:30N 38°02' E 023°31'0 0.0
2017-Sep-13 22:00N 38°02' E 023°31'0 0.0
2017-Sep-13 21:31N 38°02' E 023°31'0 0.8
2017-Sep-13 21:01N 38°02' E 023°31'3 6.5
2017-Sep-13 20:31N 38°01' E 023°35'1 1.2
2017-Sep-13 20:00N 38°01' E 023°36'0 0.3
2017-Sep-13 19:31N 38°01' E 023°36'0 0.0
2017-Sep-13 19:01N 38°01' E 023°36'0 0.0
2017-Sep-13 18:31N 38°01' E 023°36'0 0.0
2017-Sep-13 17:58N 38°01' E 023°36'0 0.0
2017-Sep-13 17:31N 38°01' E 023°36'0 0.0
2017-Sep-13 17:01N 38°01' E 023°36'0 0.0
2017-Sep-13 16:30N 38°01' E 023°36'0 0.0
2017-Sep-13 16:01N 38°01' E 023°36'0 0.0
2017-Sep-13 15:31N 38°01' E 023°36'0 0.0
2017-Sep-13 15:00N 38°01' E 023°36'0 0.0
2017-Sep-13 14:31N 38°01' E 023°36'0 0.0
2017-Sep-13 14:00N 38°01' E 023°36'0 0.0
2017-Sep-13 13:30N 38°01' E 023°36'0 0.0
2017-Sep-13 13:00N 38°01' E 023°36'0 0.0
2017-Sep-13 12:30N 38°01' E 023°36'0 0.0
2017-Sep-13 11:59N 38°01' E 023°36'0 0.0
2017-Sep-13 11:31N 38°01' E 023°36'0 0.0
2017-Sep-13 09:52N 38°01' E 023°36'0 0.0
2017-Sep-13 09:25N 38°01' E 023°36'0 0.0
2017-Sep-13 08:38N 38°01' E 023°36'0 0.0
2017-Sep-13 07:52N 38°01' E 023°36'0 0.0
2017-Sep-13 07:30N 38°01' E 023°36'1 1.3
2017-Sep-13 07:00N 38°01' E 023°35'3 6.7
2017-Sep-13 06:30N 38°02' E 023°30'0 0.3
2017-Sep-13 06:00N 38°02' E 023°31'0 0.0
2017-Sep-13 05:30N 38°02' E 023°31'0 0.0
2017-Sep-13 05:01N 38°02' E 023°31'0 0.0
2017-Sep-13 04:30N 38°02' E 023°31'0 0.0
2017-Sep-13 04:01N 38°02' E 023°31'4 0.3
2017-Sep-12 12:45N 38°01' E 023°35'0 0.0
2017-Sep-12 12:30N 38°01' E 023°36'0 0.0
2017-Sep-12 12:00N 38°01' E 023°36'0 0.0
2017-Sep-12 11:30N 38°01' E 023°35'0 0.0
2017-Sep-12 11:00N 38°01' E 023°36'0 0.0
2017-Sep-12 10:31N 38°01' E 023°36'0 0.0
2017-Sep-12 10:00N 38°01' E 023°36'0 0.0
2017-Sep-12 09:30N 38°01' E 023°36'0 0.0
2017-Sep-12 09:00N 38°01' E 023°36'0 0.0
2017-Sep-12 08:31N 38°01' E 023°36'0 0.0
2017-Sep-12 08:00N 38°01' E 023°35'0 0.0
2017-Sep-12 07:30N 38°01' E 023°36'0 0.5
2017-Sep-12 07:00N 38°02' E 023°36'1 2.4
2017-Sep-12 06:30N 38°02' E 023°34'2 5.0
2017-Sep-12 06:00N 38°02' E 023°31'1 1.1
2017-Sep-12 05:30N 38°02' E 023°31'0 0.0
2017-Sep-12 05:00N 38°02' E 023°31'0 0.0
2017-Sep-12 04:30N 38°02' E 023°31'0 0.0
2017-Sep-12 04:00N 38°02' E 023°31'0 0.0
2017-Sep-12 03:30N 38°02' E 023°31'0 0.0
2017-Sep-12 03:00N 38°02' E 023°31'0 0.0
2017-Sep-12 02:30N 38°02' E 023°31'0 0.0
2017-Sep-12 02:00N 38°02' E 023°31'0 0.0
2017-Sep-12 01:30N 38°02' E 023°31'0 0.0
2017-Sep-12 01:00N 38°02' E 023°31'  

Dump ship's entire track history